createdAt,value
2022-09-14T00:00:14.185Z,99212.34
2022-09-14T00:01:26.623Z,99217.16
2022-09-14T00:02:07.218Z,99215.88
2022-09-14T00:02:47.208Z,99218.41
2022-09-14T00:03:28.073Z,99205.59
2022-09-14T00:04:13.038Z,99212.06
2022-09-14T00:04:53.033Z,99209.56
2022-09-14T00:05:27.016Z,99214.19
2022-09-14T00:06:18.951Z,99210.44
2022-09-14T00:06:54.025Z,99210.00
2022-09-14T00:07:40.995Z,99208.31
2022-09-14T00:08:14.982Z,99202.88
2022-09-14T00:09:05.026Z,99191.06
2022-09-14T00:09:39.223Z,99207.25
2022-09-14T00:10:20.055Z,99208.72
2022-09-14T00:11:00.065Z,99210.00
2022-09-14T00:11:43.096Z,99216.28
2022-09-14T00:12:23.018Z,99216.72
2022-09-14T00:13:04.009Z,99210.00
2022-09-14T00:13:46.056Z,99208.94
2022-09-14T00:14:26.976Z,99211.69
2022-09-14T00:15:07.720Z,99203.25
2022-09-14T00:15:53.025Z,99216.50
2022-09-14T00:16:38.076Z,99211.88
2022-09-14T00:17:18.997Z,99219.84
2022-09-14T00:17:59.070Z,99209.75
2022-09-14T00:18:40.992Z,99208.72
2022-09-14T00:19:39.017Z,99202.63
2022-09-14T00:20:32.971Z,99202.38
2022-09-14T00:21:16.274Z,99205.34
2022-09-14T00:22:06.072Z,99210.59
2022-09-14T00:22:46.000Z,99190.66
2022-09-14T00:23:26.021Z,99184.38
2022-09-14T00:24:05.946Z,99192.34
2022-09-14T00:24:46.038Z,99188.78
2022-09-14T00:25:26.942Z,99199.28
2022-09-14T00:26:23.924Z,99195.72
2022-09-14T00:27:17.985Z,99199.06
2022-09-14T00:28:11.962Z,99194.81
2022-09-14T00:29:10.912Z,99199.03
2022-09-14T00:30:04.982Z,99201.78
2022-09-14T00:30:59.028Z,99191.47
2022-09-14T00:31:47.105Z,99195.25
2022-09-14T00:32:21.053Z,99194.41
2022-09-14T00:33:07.913Z,99196.69
2022-09-14T00:33:43.047Z,99199.03
2022-09-14T00:34:29.988Z,99199.03
2022-09-14T00:35:04.382Z,99182.78
2022-09-14T00:35:51.017Z,99195.22
2022-09-14T00:36:32.335Z,99194.19
2022-09-14T00:37:12.019Z,99193.72
2022-09-14T00:37:56.085Z,99184.84
2022-09-14T00:38:36.016Z,99193.09
2022-09-14T00:39:15.984Z,99188.88
2022-09-14T00:39:57.011Z,99193.88
2022-09-14T00:40:37.048Z,99198.94
2022-09-14T00:41:27.055Z,99184.63
2022-09-14T00:42:07.113Z,99187.59
2022-09-14T00:42:47.998Z,99187.38
2022-09-14T00:43:28.037Z,99197.66
2022-09-14T00:44:10.005Z,99190.53
2022-09-14T00:44:43.583Z,99190.53
2022-09-14T00:45:34.984Z,99191.31
2022-09-14T00:46:08.650Z,99188.81
2022-09-14T00:47:05.946Z,99182.09
2022-09-14T00:47:39.813Z,99191.31
2022-09-14T00:48:20.992Z,99192.06
2022-09-14T00:48:55.116Z,99190.00
2022-09-14T00:49:38.504Z,99194.41
2022-09-14T00:50:19.952Z,99189.63
2022-09-14T00:50:54.028Z,99191.22
2022-09-14T00:51:30.604Z,99180.94
2022-09-14T00:52:28.983Z,99192.47
2022-09-14T00:53:03.017Z,99196.41
2022-09-14T00:53:43.928Z,99193.16
2022-09-14T00:54:24.045Z,99175.13
2022-09-14T00:55:11.969Z,99191.53
2022-09-14T00:55:54.088Z,99186.69
2022-09-14T00:56:34.977Z,99187.28
2022-09-14T00:57:15.049Z,99191.91
2022-09-14T00:57:57.975Z,99184.75
2022-09-14T00:58:39.077Z,99191.91
2022-09-14T00:59:33.031Z,99196.09
2022-09-14T01:00:16.104Z,99187.06
2022-09-14T01:00:55.988Z,99182.66
2022-09-14T01:01:36.061Z,99186.81
2022-09-14T01:02:19.030Z,99190.66
2022-09-14T01:03:00.876Z,99186.44
2022-09-14T01:03:40.994Z,99191.91
2022-09-14T01:04:22.389Z,99180.50
2022-09-14T01:05:02.975Z,99184.50
2022-09-14T01:06:02.037Z,99188.28
2022-09-14T01:07:02.926Z,99181.75
2022-09-14T01:08:07.097Z,99190.09
2022-09-14T01:09:10.873Z,99180.88
2022-09-14T01:10:37.987Z,99182.97
2022-09-14T01:11:40.385Z,99186.00
2022-09-14T01:12:55.943Z,99183.44
2022-09-14T01:14:12.057Z,99173.59
2022-09-14T01:15:38.969Z,99180.72
2022-09-14T01:16:31.219Z,99173.53
2022-09-14T01:17:35.941Z,99176.84
2022-09-14T01:18:16.857Z,99184.44
2022-09-14T01:19:12.941Z,99179.34
2022-09-14T01:20:16.789Z,99169.25
2022-09-14T01:21:19.981Z,99177.03
2022-09-14T01:21:56.114Z,99172.59
2022-09-14T01:23:16.957Z,99172.03
2022-09-14T01:24:02.353Z,99180.72
2022-09-14T01:25:11.954Z,99168.47
2022-09-14T01:26:39.015Z,99181.25
2022-09-14T01:27:44.087Z,99179.88
2022-09-14T01:28:52.962Z,99179.09
2022-09-14T01:29:50.014Z,99188.16
2022-09-14T01:30:30.925Z,99170.91
2022-09-14T01:31:21.043Z,99180.19
2022-09-14T01:32:09.961Z,99186.94
2022-09-14T01:33:09.037Z,99177.03
2022-09-14T01:33:57.929Z,99188.06
2022-09-14T01:35:15.934Z,99188.31
2022-09-14T01:36:03.906Z,99170.66
2022-09-14T01:36:47.006Z,99179.88
2022-09-14T01:37:39.897Z,99171.91
2022-09-14T01:38:24.167Z,99187.66
2022-09-14T01:39:05.892Z,99184.53
2022-09-14T01:39:53.165Z,99184.06
2022-09-14T01:40:42.929Z,99183.69
2022-09-14T01:41:31.335Z,99184.91
2022-09-14T01:42:12.907Z,99179.03
2022-09-14T01:43:04.981Z,99176.88
2022-09-14T01:43:42.368Z,99181.56
2022-09-14T01:44:49.940Z,99173.53
2022-09-14T01:45:31.108Z,99178.94
2022-09-14T01:46:31.912Z,99178.06
2022-09-14T01:47:20.543Z,99173.91
2022-09-14T01:48:08.012Z,99170.91
2022-09-14T01:49:06.028Z,99182.09
2022-09-14T01:49:52.908Z,99181.81
2022-09-14T01:50:40.986Z,99180.41
2022-09-14T01:51:25.889Z,99181.44
2022-09-14T01:52:31.980Z,99167.16
2022-09-14T01:53:26.961Z,99177.47
2022-09-14T01:54:23.132Z,99185.66
2022-09-14T01:55:26.904Z,99175.31
2022-09-14T01:56:32.159Z,99179.63
2022-09-14T01:58:11.932Z,99176.88
2022-09-14T01:58:57.954Z,99156.41
2022-09-14T01:59:39.943Z,99180.13
2022-09-14T02:00:28.952Z,99186.50
2022-09-14T02:01:04.077Z,99178.94
2022-09-14T02:02:01.109Z,99182.50
2022-09-14T02:02:46.954Z,99170.66
2022-09-14T02:03:48.960Z,99177.41
2022-09-14T02:04:41.930Z,99162.47
2022-09-14T02:06:02.829Z,99176.78
2022-09-14T02:06:59.945Z,99169.69
2022-09-14T02:07:53.950Z,99156.59
2022-09-14T02:08:47.895Z,99143.91
2022-09-14T02:09:41.924Z,99159.50
2022-09-14T02:10:35.896Z,99169.13
2022-09-14T02:11:29.893Z,99162.75
2022-09-14T02:12:23.941Z,99167.16
2022-09-14T02:13:17.992Z,99165.06
2022-09-14T02:14:11.807Z,99162.97
2022-09-14T02:14:59.935Z,99157.38
2022-09-14T02:15:33.984Z,99150.03
2022-09-14T02:16:20.984Z,99156.69
2022-09-14T02:16:55.924Z,99160.25
2022-09-14T02:17:43.913Z,99160.66
2022-09-14T02:18:17.946Z,99157.59
2022-09-14T02:19:07.912Z,99156.75
2022-09-14T02:19:48.009Z,99156.19
2022-09-14T02:20:45.912Z,99162.78
2022-09-14T02:21:34.307Z,99152.09
2022-09-14T02:22:14.902Z,99154.63
2022-09-14T02:22:54.913Z,99157.00
2022-09-14T02:23:35.903Z,99148.75
2022-09-14T02:24:17.987Z,99157.06
2022-09-14T02:24:58.877Z,99159.09
2022-09-14T02:25:41.224Z,99156.47
2022-09-14T02:26:22.900Z,99153.09
2022-09-14T02:27:03.941Z,99158.63
2022-09-14T02:27:44.894Z,99156.47
2022-09-14T02:28:24.981Z,99161.91
2022-09-14T02:29:05.868Z,99155.56
2022-09-14T02:29:45.925Z,99159.38
2022-09-14T02:30:26.932Z,99159.75
2022-09-14T02:31:32.008Z,99150.88
2022-09-14T02:33:01.813Z,99157.53
2022-09-14T02:34:11.101Z,99150.78
2022-09-14T02:35:50.873Z,99152.09
2022-09-14T02:37:24.943Z,99155.78
2022-09-14T02:38:36.898Z,99154.09
2022-09-14T02:39:37.868Z,99150.88
2022-09-14T02:40:54.904Z,99140.00
2022-09-14T02:42:13.880Z,99147.13
2022-09-14T02:43:12.896Z,99149.00
2022-09-14T02:44:08.979Z,99124.00
2022-09-14T02:44:58.895Z,99148.94
2022-09-14T02:46:10.018Z,99146.97
2022-09-14T02:47:11.847Z,99143.41
2022-09-14T02:48:42.891Z,99133.84
2022-09-14T02:49:54.845Z,99143.97
2022-09-14T02:51:04.832Z,99135.53
2022-09-14T02:52:46.903Z,99133.44
2022-09-14T02:53:49.896Z,99122.22
2022-09-14T02:54:58.848Z,99138.53
2022-09-14T02:55:59.844Z,99120.88
2022-09-14T02:56:54.075Z,99119.28
2022-09-14T02:58:22.889Z,99136.06
2022-09-14T02:59:10.889Z,99135.31
2022-09-14T02:59:44.828Z,99131.91
2022-09-14T03:00:31.907Z,99133.22
2022-09-14T03:01:06.114Z,99131.16
2022-09-14T03:01:52.875Z,99130.78
2022-09-14T03:02:26.968Z,99125.25
2022-09-14T03:03:15.794Z,99135.41
2022-09-14T03:03:49.932Z,99129.97
2022-09-14T03:04:29.914Z,99138.66
2022-09-14T03:05:10.905Z,99140.84
2022-09-14T03:05:51.836Z,99128.91
2022-09-14T03:06:31.964Z,99137.00
2022-09-14T03:07:11.856Z,99140.34
2022-09-14T03:07:51.921Z,99133.03
2022-09-14T03:08:33.798Z,99135.72
2022-09-14T03:09:13.956Z,99141.03
2022-09-14T03:09:54.930Z,99133.53
2022-09-14T03:10:35.943Z,99139.44
2022-09-14T03:11:16.836Z,99142.28
2022-09-14T03:11:57.975Z,99144.34
2022-09-14T03:12:37.848Z,99143.03
2022-09-14T03:13:18.849Z,99144.06
2022-09-14T03:13:58.804Z,99141.06
2022-09-14T03:14:38.842Z,99132.44
2022-09-14T03:15:18.865Z,99134.22
2022-09-14T03:15:58.913Z,99134.28
2022-09-14T03:16:38.802Z,99129.31
2022-09-14T03:17:32.785Z,99129.97
2022-09-14T03:18:26.847Z,99127.72
2022-09-14T03:19:20.803Z,99125.19
2022-09-14T03:20:15.943Z,99116.75
2022-09-14T03:20:55.812Z,99121.28
2022-09-14T03:21:35.877Z,99121.28
2022-09-14T03:22:15.740Z,99131.41
2022-09-14T03:22:55.937Z,99128.56
2022-09-14T03:23:35.872Z,99122.56
2022-09-14T03:24:15.916Z,99128.47
2022-09-14T03:24:55.814Z,99106.44
2022-09-14T03:25:37.378Z,99126.59
2022-09-14T03:26:23.853Z,99132.59
2022-09-14T03:27:03.869Z,99135.13
2022-09-14T03:27:44.757Z,99133.84
2022-09-14T03:28:24.882Z,99129.81
2022-09-14T03:29:05.814Z,99133.00
2022-09-14T03:29:46.698Z,99133.16
2022-09-14T03:30:27.749Z,99139.38
2022-09-14T03:31:13.039Z,99137.59
2022-09-14T03:31:52.968Z,99140.81
2022-09-14T03:32:32.927Z,99142.09
2022-09-14T03:33:13.752Z,99143.88
2022-09-14T03:33:55.237Z,99142.66
2022-09-14T03:34:34.805Z,99152.91
2022-09-14T03:35:15.876Z,99152.06
2022-09-14T03:35:55.756Z,99148.72
2022-09-14T03:36:37.897Z,99151.78
2022-09-14T03:37:17.824Z,99139.38
2022-09-14T03:37:57.929Z,99140.97
2022-09-14T03:38:37.767Z,99146.34
2022-09-14T03:39:17.951Z,99133.44
2022-09-14T03:39:58.839Z,99147.00
2022-09-14T03:40:38.949Z,99144.66
2022-09-14T03:41:20.021Z,99141.16
2022-09-14T03:41:59.855Z,99143.59
2022-09-14T03:42:39.880Z,99115.44
2022-09-14T03:43:21.695Z,99132.81
2022-09-14T03:44:02.826Z,99138.09
2022-09-14T03:44:42.897Z,99146.34
2022-09-14T03:45:24.799Z,99133.28
2022-09-14T03:46:04.841Z,99136.56
2022-09-14T03:46:45.865Z,99124.56
2022-09-14T03:47:26.229Z,99141.81
2022-09-14T03:48:05.814Z,99142.66
2022-09-14T03:48:45.778Z,99150.25
2022-09-14T03:49:26.842Z,99147.53
2022-09-14T03:50:07.921Z,99143.25
2022-09-14T03:50:48.834Z,99140.97
2022-09-14T03:51:29.895Z,99140.78
2022-09-14T03:52:10.851Z,99137.41
2022-09-14T03:52:50.776Z,99144.13
2022-09-14T03:53:30.808Z,99132.09
2022-09-14T03:54:10.989Z,99139.38
2022-09-14T03:54:50.797Z,99140.53
2022-09-14T03:55:32.797Z,99147.53
2022-09-14T03:56:15.797Z,99142.25
2022-09-14T03:56:58.860Z,99137.28
2022-09-14T03:57:39.761Z,99142.38
2022-09-14T03:58:19.822Z,99135.16
2022-09-14T03:58:59.812Z,99133.63
2022-09-14T03:59:43.745Z,99120.63
2022-09-14T04:00:24.717Z,99129.59
2022-09-14T04:01:18.181Z,99138.78
2022-09-14T04:01:58.883Z,99132.41
2022-09-14T04:02:38.981Z,99115.81
2022-09-14T04:03:19.109Z,99123.69
2022-09-14T04:04:07.041Z,99128.78
2022-09-14T04:05:00.803Z,99126.34
2022-09-14T04:05:57.772Z,99126.69
2022-09-14T04:06:51.793Z,99128.22
2022-09-14T04:07:45.768Z,99127.09
2022-09-14T04:08:39.841Z,99117.41
2022-09-14T04:09:26.823Z,99128.38
2022-09-14T04:10:00.807Z,99127.94
2022-09-14T04:10:47.736Z,99129.97
2022-09-14T04:11:31.514Z,99129.41
2022-09-14T04:12:18.768Z,99129.59
2022-09-14T04:12:52.807Z,99129.22
2022-09-14T04:13:39.710Z,99137.97
2022-09-14T04:14:14.013Z,99127.84
2022-09-14T04:14:53.800Z,99126.78
2022-09-14T04:15:33.794Z,99128.78
2022-09-14T04:16:14.786Z,99121.34
2022-09-14T04:16:54.795Z,99124.72
2022-09-14T04:17:35.720Z,99120.69
2022-09-14T04:18:15.789Z,99121.16
2022-09-14T04:18:55.736Z,99128.78
2022-09-14T04:19:37.537Z,99128.97
2022-09-14T04:20:18.719Z,99127.53
2022-09-14T04:21:08.029Z,99126.97
2022-09-14T04:21:48.689Z,99133.75
2022-09-14T04:22:28.772Z,99111.13
2022-09-14T04:23:09.733Z,99119.47
2022-09-14T04:24:49.700Z,99118.28
2022-09-14T04:25:36.806Z,99127.34
2022-09-14T04:26:35.730Z,99136.28
2022-09-14T04:27:29.687Z,99133.38
2022-09-14T04:28:23.725Z,99127.09
2022-09-14T04:29:18.697Z,99140.69
2022-09-14T04:30:12.701Z,99125.47
2022-09-14T04:31:07.764Z,99132.59
2022-09-14T04:31:41.872Z,99121.91
2022-09-14T04:32:33.463Z,99140.50
2022-09-14T04:33:07.750Z,99138.06
2022-09-14T04:33:56.709Z,99131.97
2022-09-14T04:34:30.791Z,99138.25
2022-09-14T04:35:17.713Z,99131.59
2022-09-14T04:35:51.761Z,99135.44
2022-09-14T04:36:37.721Z,99138.91
2022-09-14T04:37:17.763Z,99142.25
2022-09-14T04:37:57.717Z,99144.97
2022-09-14T04:38:39.788Z,99129.31
2022-09-14T04:39:20.702Z,99131.78
2022-09-14T04:40:00.831Z,99141.94
2022-09-14T04:40:40.684Z,99121.44
2022-09-14T04:41:24.879Z,99138.84
2022-09-14T04:42:04.721Z,99134.41
2022-09-14T04:42:44.768Z,99139.84
2022-09-14T04:43:24.680Z,99130.09
2022-09-14T04:44:05.820Z,99130.44
2022-09-14T04:44:46.691Z,99138.25
2022-09-14T04:45:27.050Z,99142.66
2022-09-14T04:46:16.739Z,99124.25
2022-09-14T04:46:56.845Z,99130.38
2022-09-14T04:47:37.713Z,99141.25
2022-09-14T04:48:17.770Z,99148.69
2022-09-14T04:48:58.705Z,99131.88
2022-09-14T04:49:38.812Z,99132.13
2022-09-14T04:50:19.670Z,99120.88
2022-09-14T04:50:59.781Z,99137.41
2022-09-14T04:51:41.693Z,99138.44
2022-09-14T04:52:21.997Z,99141.66
2022-09-14T04:53:01.717Z,99138.94
2022-09-14T04:53:44.843Z,99141.94
2022-09-14T04:54:25.686Z,99143.28
2022-09-14T04:55:05.883Z,99138.16
2022-09-14T04:55:46.669Z,99152.06
2022-09-14T04:56:28.722Z,99137.00
2022-09-14T04:57:08.765Z,99147.38
2022-09-14T04:57:49.360Z,99147.38
2022-09-14T04:58:29.709Z,99151.00
2022-09-14T04:59:10.824Z,99159.94
2022-09-14T04:59:50.707Z,99145.09
2022-09-14T05:00:30.831Z,99153.13
2022-09-14T05:01:14.691Z,99161.50
2022-09-14T05:01:56.819Z,99162.66
2022-09-14T05:02:38.798Z,99161.69
2022-09-14T05:03:18.967Z,99155.69
2022-09-14T05:03:59.694Z,99158.25
2022-09-14T05:04:39.806Z,99161.13
2022-09-14T05:05:20.717Z,99155.84
2022-09-14T05:06:00.708Z,99142.66
2022-09-14T05:06:44.676Z,99137.13
2022-09-14T05:07:24.753Z,99149.78
2022-09-14T05:08:04.683Z,99156.91
2022-09-14T05:08:45.741Z,99137.88
2022-09-14T05:09:26.722Z,99148.72
2022-09-14T05:10:07.560Z,99159.38
2022-09-14T05:10:47.657Z,99160.59
2022-09-14T05:11:31.816Z,99156.44
2022-09-14T05:12:12.677Z,99151.13
2022-09-14T05:12:52.753Z,99143.06
2022-09-14T05:13:33.666Z,99167.81
2022-09-14T05:14:13.820Z,99168.66
2022-09-14T05:14:54.791Z,99162.56
2022-09-14T05:15:34.865Z,99160.78
2022-09-14T05:16:32.663Z,99163.41
2022-09-14T05:17:12.761Z,99157.50
2022-09-14T05:17:53.714Z,99159.94
2022-09-14T05:18:34.762Z,99148.00
2022-09-14T05:19:20.672Z,99166.78
2022-09-14T05:20:07.705Z,99159.56
2022-09-14T05:21:04.042Z,99158.81
2022-09-14T05:22:01.674Z,99162.56
2022-09-14T05:22:55.688Z,99141.56
2022-09-14T05:23:49.710Z,99145.97
2022-09-14T05:24:43.641Z,99158.81
2022-09-14T05:25:30.681Z,99160.50
2022-09-14T05:26:05.716Z,99167.13
2022-09-14T05:26:56.054Z,99157.88
2022-09-14T05:27:33.834Z,99159.75
2022-09-14T05:28:20.670Z,99155.69
2022-09-14T05:29:02.913Z,99159.63
2022-09-14T05:29:49.660Z,99162.25
2022-09-14T05:30:23.708Z,99145.94
2022-09-14T05:31:03.766Z,99153.53
2022-09-14T05:31:44.724Z,99152.22
2022-09-14T05:32:24.640Z,99156.25
2022-09-14T05:33:04.704Z,99144.91
2022-09-14T05:33:44.681Z,99152.22
2022-09-14T05:34:24.716Z,99150.25
2022-09-14T05:35:04.661Z,99143.41
2022-09-14T05:35:44.741Z,99145.56
2022-09-14T05:36:25.671Z,99150.16
2022-09-14T05:37:05.717Z,99153.34
2022-09-14T05:37:45.625Z,99151.28
2022-09-14T05:38:25.694Z,99148.56
2022-09-14T05:39:06.645Z,99151.63
2022-09-14T05:39:46.741Z,99149.03
2022-09-14T05:40:26.753Z,99154.84
2022-09-14T05:41:06.749Z,99153.59
2022-09-14T05:41:47.665Z,99143.22
2022-09-14T05:42:27.731Z,99152.88
2022-09-14T05:43:07.634Z,99144.97
2022-09-14T05:43:48.686Z,99147.34
2022-09-14T05:44:28.621Z,99158.03
2022-09-14T05:45:08.720Z,99152.69
2022-09-14T05:45:48.679Z,99150.72
2022-09-14T05:46:28.717Z,99145.81
2022-09-14T05:47:08.681Z,99153.53
2022-09-14T05:47:48.726Z,99155.69
2022-09-14T05:48:28.656Z,99152.78
2022-09-14T05:49:08.715Z,99152.38
2022-09-14T05:49:48.634Z,99147.34
2022-09-14T05:50:28.738Z,99147.06
2022-09-14T05:51:13.608Z,99158.78
2022-09-14T05:51:53.682Z,99153.34
2022-09-14T05:52:36.649Z,99152.28
2022-09-14T05:53:16.688Z,99153.53
2022-09-14T05:54:06.632Z,99143.50
2022-09-14T05:54:46.694Z,99139.25
2022-09-14T05:55:27.652Z,99140.97
2022-09-14T05:56:09.691Z,99155.09
2022-09-14T05:56:49.634Z,99153.81
2022-09-14T05:57:29.693Z,99158.88
2022-09-14T05:58:10.682Z,99158.56
2022-09-14T05:58:51.746Z,99162.97
2022-09-14T05:59:31.619Z,99146.75
2022-09-14T06:00:12.749Z,99157.28
2022-09-14T06:00:53.693Z,99156.25
2022-09-14T06:01:37.726Z,99149.97
2022-09-14T06:02:18.408Z,99148.09
2022-09-14T06:03:00.709Z,99146.94
2022-09-14T06:03:41.628Z,99155.84
2022-09-14T06:04:21.688Z,99140.28
2022-09-14T06:05:01.689Z,99130.44
2022-09-14T06:05:41.944Z,99150.72
2022-09-14T06:06:24.619Z,99151.75
2022-09-14T06:07:19.757Z,99139.81
2022-09-14T06:08:00.638Z,99154.47
2022-09-14T06:08:40.667Z,99155.78
2022-09-14T06:09:22.687Z,99140.22
2022-09-14T06:10:02.727Z,99143.88
2022-09-14T06:10:42.614Z,99130.94
2022-09-14T06:11:25.680Z,99145.19
2022-09-14T06:12:06.622Z,99152.59
2022-09-14T06:12:46.713Z,99155.13
2022-09-14T06:13:29.629Z,99143.31
2022-09-14T06:14:10.802Z,99148.28
2022-09-14T06:14:50.641Z,99154.72
2022-09-14T06:15:30.708Z,99157.44
2022-09-14T06:16:20.641Z,99151.28
2022-09-14T06:17:00.762Z,99142.56
2022-09-14T06:17:41.613Z,99147.91
2022-09-14T06:18:35.590Z,99156.72
2022-09-14T06:19:29.622Z,99149.41
2022-09-14T06:20:11.881Z,99161.31
2022-09-14T06:20:58.821Z,99162.06
2022-09-14T06:21:41.597Z,99155.97
2022-09-14T06:22:21.744Z,99165.16
2022-09-14T06:23:02.598Z,99158.03
2022-09-14T06:23:42.642Z,99154.66
2022-09-14T06:24:22.610Z,99161.88
2022-09-14T06:25:02.785Z,99154.28
2022-09-14T06:25:43.659Z,99168.16
2022-09-14T06:26:23.713Z,99156.06
2022-09-14T06:27:03.589Z,99156.56
2022-09-14T06:27:44.681Z,99147.16
2022-09-14T06:28:25.595Z,99164.78
2022-09-14T06:29:05.714Z,99163.47
2022-09-14T06:29:45.622Z,99153.22
2022-09-14T06:30:26.501Z,99149.13
2022-09-14T06:31:09.891Z,99168.53
2022-09-14T06:31:49.661Z,99164.78
2022-09-14T06:32:29.610Z,99164.59
2022-09-14T06:33:11.677Z,99150.81
2022-09-14T06:33:53.600Z,99158.50
2022-09-14T06:34:33.668Z,99161.69
2022-09-14T06:35:14.613Z,99164.78
2022-09-14T06:36:20.629Z,99160.28
2022-09-14T06:37:15.595Z,99151.47
2022-09-14T06:38:11.665Z,99167.78
2022-09-14T06:39:06.610Z,99164.63
2022-09-14T06:40:00.684Z,99166.31
2022-09-14T06:41:08.593Z,99165.19
2022-09-14T06:41:48.651Z,99155.53
2022-09-14T06:42:28.678Z,99161.34
2022-09-14T06:43:09.577Z,99142.50
2022-09-14T06:43:49.722Z,99156.91
2022-09-14T06:44:30.596Z,99153.41
2022-09-14T06:45:11.616Z,99152.50
2022-09-14T06:46:00.639Z,99147.81
2022-09-14T06:46:45.697Z,99155.78
2022-09-14T06:47:28.626Z,99152.00
2022-09-14T06:48:08.706Z,99149.78
2022-09-14T06:48:54.670Z,99162.81
2022-09-14T06:49:34.651Z,99151.00
2022-09-14T06:50:15.601Z,99139.38
2022-09-14T06:50:55.693Z,99159.91
2022-09-14T06:51:40.614Z,99151.94
2022-09-14T06:52:20.860Z,99159.13
2022-09-14T06:53:00.656Z,99152.47
2022-09-14T06:53:40.663Z,99142.34
2022-09-14T06:54:22.589Z,99157.56
2022-09-14T06:55:02.671Z,99154.09
2022-09-14T06:55:43.589Z,99164.56
2022-09-14T06:56:24.636Z,99156.13
2022-09-14T06:57:05.597Z,99153.16
2022-09-14T06:57:45.732Z,99154.72
2022-09-14T06:58:25.633Z,99142.28
2022-09-14T06:59:06.700Z,99159.97
2022-09-14T06:59:46.592Z,99168.63
2022-09-14T07:00:26.821Z,99159.03
2022-09-14T07:01:12.565Z,99156.97
2022-09-14T07:01:53.667Z,99170.66
2022-09-14T07:02:33.636Z,99155.00
2022-09-14T07:03:13.741Z,99159.69
2022-09-14T07:03:54.595Z,99161.50
2022-09-14T07:04:34.633Z,99165.19
2022-09-14T07:05:15.587Z,99155.00
2022-09-14T07:05:55.654Z,99177.34
2022-09-14T07:06:40.612Z,99181.38
2022-09-14T07:07:22.703Z,99172.66
2022-09-14T07:08:03.563Z,99174.34
2022-09-14T07:08:44.729Z,99156.81
2022-09-14T07:09:26.579Z,99170.41
2022-09-14T07:10:06.612Z,99162.53
2022-09-14T07:10:49.566Z,99167.97
2022-09-14T07:11:33.697Z,99178.47
2022-09-14T07:12:16.593Z,99180.16
2022-09-14T07:12:56.738Z,99184.75
2022-09-14T07:13:37.566Z,99167.56
2022-09-14T07:14:33.603Z,99167.56
2022-09-14T07:15:27.567Z,99154.63
2022-09-14T07:16:21.544Z,99170.28
2022-09-14T07:17:15.532Z,99162.94
2022-09-14T07:18:09.570Z,99164.44
2022-09-14T07:19:10.562Z,99170.81
2022-09-14T07:19:57.577Z,99160.88
2022-09-14T07:20:31.617Z,99159.19
2022-09-14T07:21:24.587Z,99174.38
2022-09-14T07:21:58.633Z,99170.56
2022-09-14T07:22:45.548Z,99170.47
2022-09-14T07:23:19.597Z,99164.25
2022-09-14T07:24:08.746Z,99170.81
2022-09-14T07:24:48.685Z,99157.78
2022-09-14T07:25:28.648Z,99164.34
2022-09-14T07:26:12.608Z,99168.16
2022-09-14T07:26:52.553Z,99154.91
2022-09-14T07:27:33.631Z,99163.56
2022-09-14T07:28:14.535Z,99152.94
2022-09-14T07:29:03.696Z,99157.97
2022-09-14T07:29:43.512Z,99151.25
2022-09-14T07:30:24.975Z,99161.81
2022-09-14T07:31:14.569Z,99166.88
2022-09-14T07:31:58.637Z,99158.38
2022-09-14T07:32:38.552Z,99159.75
2022-09-14T07:33:18.613Z,99170.81
2022-09-14T07:34:03.551Z,99163.91
2022-09-14T07:34:44.599Z,99165.56
2022-09-14T07:35:24.553Z,99160.44
2022-09-14T07:36:23.539Z,99160.13
2022-09-14T07:36:57.278Z,99159.66
2022-09-14T07:37:44.741Z,99164.00
2022-09-14T07:38:30.595Z,99162.34
2022-09-14T07:39:29.569Z,99157.38
2022-09-14T07:40:03.400Z,99150.59
2022-09-14T07:40:50.526Z,99165.22
2022-09-14T07:41:36.585Z,99161.28
2022-09-14T07:42:16.826Z,99173.00
2022-09-14T07:43:00.541Z,99168.88
2022-09-14T07:43:41.673Z,99170.09
2022-09-14T07:44:23.561Z,99170.91
2022-09-14T07:45:04.674Z,99180.13
2022-09-14T07:45:45.639Z,99180.13
2022-09-14T07:46:27.740Z,99180.13
2022-09-14T07:47:14.625Z,99174.16
2022-09-14T07:47:48.611Z,99173.28
2022-09-14T07:48:35.548Z,99174.50
2022-09-14T07:49:09.710Z,99178.97
2022-09-14T07:49:56.580Z,99177.53
2022-09-14T07:50:30.766Z,99175.91
2022-09-14T07:51:18.576Z,99187.25
2022-09-14T07:51:54.941Z,99190.06
2022-09-14T07:52:38.564Z,99181.97
2022-09-14T07:53:20.668Z,99168.25
2022-09-14T07:54:01.613Z,99184.69
2022-09-14T07:54:41.870Z,99184.06
2022-09-14T07:55:22.554Z,99178.44
2022-09-14T07:56:07.409Z,99182.19
2022-09-14T07:56:48.517Z,99179.34
2022-09-14T07:57:52.327Z,99170.31
2022-09-14T07:58:29.575Z,99187.38
2022-09-14T07:59:35.042Z,99190.03
2022-09-14T08:00:12.521Z,99185.00
2022-09-14T08:00:53.802Z,99182.91
2022-09-14T08:01:36.604Z,99190.63
2022-09-14T08:02:17.719Z,99175.53
2022-09-14T08:03:02.603Z,99161.84
2022-09-14T08:03:49.648Z,99175.63
2022-09-14T08:04:43.536Z,99182.84
2022-09-14T08:05:39.553Z,99172.75
2022-09-14T08:06:37.544Z,99168.72
2022-09-14T08:07:32.618Z,99167.66
2022-09-14T08:08:28.521Z,99166.88
2022-09-14T08:09:14.579Z,99183.13
2022-09-14T08:09:54.611Z,99184.88
2022-09-14T08:10:34.606Z,99182.19
2022-09-14T08:11:21.618Z,99181.19
2022-09-14T08:12:01.556Z,99185.38
2022-09-14T08:12:41.670Z,99177.84
2022-09-14T08:13:21.537Z,99185.31
2022-09-14T08:14:06.698Z,99183.25
2022-09-14T08:14:46.524Z,99176.88
2022-09-14T08:15:31.747Z,99181.75
2022-09-14T08:16:12.537Z,99175.72
2022-09-14T08:16:55.294Z,99176.31
2022-09-14T08:17:36.512Z,99180.81
2022-09-14T08:18:16.623Z,99177.50
2022-09-14T08:19:02.520Z,99177.50
2022-09-14T08:19:42.591Z,99177.13
2022-09-14T08:20:23.625Z,99166.13
2022-09-14T08:21:03.710Z,99175.03
2022-09-14T08:21:47.212Z,99181.28
2022-09-14T08:22:28.615Z,99166.56
2022-09-14T08:23:09.537Z,99176.88
2022-09-14T08:23:50.642Z,99160.47
2022-09-14T08:24:30.495Z,99175.88
2022-09-14T08:25:11.597Z,99171.66
2022-09-14T08:25:52.618Z,99170.38
2022-09-14T08:26:36.313Z,99171.66
2022-09-14T08:27:18.526Z,99177.56
2022-09-14T08:27:58.605Z,99167.72
2022-09-14T08:28:39.591Z,99183.06
2022-09-14T08:29:21.607Z,99171.66
2022-09-14T08:30:01.636Z,99163.31
2022-09-14T08:30:41.629Z,99157.63
2022-09-14T08:31:31.630Z,99175.34
2022-09-14T08:32:11.672Z,99160.22
2022-09-14T08:32:52.516Z,99175.53
2022-09-14T08:33:32.601Z,99171.13
2022-09-14T08:34:14.519Z,99174.31
2022-09-14T08:35:08.518Z,99179.34
2022-09-14T08:36:02.523Z,99174.50
2022-09-14T08:36:51.546Z,99192.69
2022-09-14T08:37:25.581Z,99163.50
2022-09-14T08:38:12.516Z,99173.00
2022-09-14T08:38:46.605Z,99169.25
2022-09-14T08:39:33.493Z,99166.50
2022-09-14T08:40:07.599Z,99175.53
2022-09-14T08:40:55.502Z,99170.34
2022-09-14T08:41:42.718Z,99143.19
2022-09-14T08:42:26.658Z,99165.13
2022-09-14T08:43:09.643Z,99170.78
2022-09-14T08:43:50.654Z,99183.22
2022-09-14T08:44:47.541Z,99162.22
2022-09-14T08:45:30.561Z,99167.47
2022-09-14T08:46:17.697Z,99177.16
2022-09-14T08:47:25.457Z,99167.31
2022-09-14T08:48:05.503Z,99174.44
2022-09-14T08:48:45.556Z,99152.38
2022-09-14T08:50:09.512Z,99167.59
2022-09-14T08:50:46.560Z,99167.41
2022-09-14T08:51:34.461Z,99154.81
2022-09-14T08:52:08.606Z,99162.44
2022-09-14T08:52:55.491Z,99160.72
2022-09-14T08:53:35.750Z,99148.53